createdAt,value
2019-04-03T00:00:56.564Z,9.40
2019-04-03T00:03:29.131Z,9.30
2019-04-03T00:06:00.431Z,9.20
2019-04-03T00:08:31.615Z,9.17
2019-04-03T00:11:02.747Z,9.12
2019-04-03T00:13:34.542Z,9.05
2019-04-03T00:16:06.627Z,8.97
2019-04-03T00:18:38.635Z,8.92
2019-04-03T00:21:09.876Z,8.87
2019-04-03T00:23:41.834Z,8.88
2019-04-03T00:26:13.856Z,8.88
2019-04-03T00:28:47.147Z,8.84
2019-04-03T00:31:19.209Z,8.72
2019-04-03T00:33:51.662Z,8.68
2019-04-03T00:36:24.966Z,8.59
2019-04-03T00:38:56.231Z,8.51
2019-04-03T00:41:27.363Z,8.40
2019-04-03T00:43:59.152Z,8.28
2019-04-03T00:46:31.115Z,8.45
2019-04-03T00:49:02.983Z,8.61
2019-04-03T00:51:34.859Z,8.34
2019-04-03T00:54:07.068Z,8.09
2019-04-03T00:56:38.271Z,7.85
2019-04-03T00:59:10.055Z,7.76
2019-04-03T01:01:42.051Z,7.66
2019-04-03T01:04:13.959Z,7.64
2019-04-03T01:06:45.893Z,7.49
2019-04-03T01:09:17.743Z,7.49
2019-04-03T01:11:48.999Z,7.46
2019-04-03T01:14:20.956Z,7.64
2019-04-03T01:16:52.779Z,7.48
2019-04-03T01:19:25.070Z,7.34
2019-04-03T01:21:57.005Z,7.29
2019-04-03T01:24:28.901Z,7.58
2019-04-03T01:27:00.174Z,7.47
2019-04-03T01:29:32.003Z,7.29
2019-04-03T01:32:03.947Z,7.38
2019-04-03T01:34:35.815Z,7.65
2019-04-03T01:37:07.812Z,7.42
2019-04-03T01:39:39.668Z,7.38
2019-04-03T01:42:11.827Z,7.49
2019-04-03T01:44:43.087Z,7.37
2019-04-03T01:47:14.889Z,7.20
2019-04-03T01:49:46.779Z,7.18
2019-04-03T01:52:18.052Z,7.18
2019-04-03T01:54:49.802Z,7.21
2019-04-03T01:57:21.651Z,7.29
2019-04-03T01:59:53.523Z,7.25
2019-04-03T02:02:25.387Z,7.12
2019-04-03T02:04:57.617Z,7.08
2019-04-03T02:07:29.583Z,7.05
2019-04-03T02:10:00.955Z,7.15
2019-04-03T02:12:32.871Z,7.30
2019-04-03T02:15:04.805Z,7.33
2019-04-03T02:17:36.682Z,7.35
2019-04-03T02:20:07.977Z,7.42
2019-04-03T02:22:39.839Z,7.46
2019-04-03T02:25:11.929Z,7.53
2019-04-03T02:27:43.782Z,7.60
2019-04-03T02:30:15.544Z,7.67
2019-04-03T02:32:47.341Z,7.72
2019-04-03T02:35:18.600Z,7.72
2019-04-03T02:37:50.862Z,7.69
2019-04-03T02:40:23.424Z,7.64
2019-04-03T02:42:55.592Z,7.61
2019-04-03T02:45:26.776Z,7.57
2019-04-03T02:47:58.706Z,7.58
2019-04-03T02:50:30.738Z,7.56
2019-04-03T02:53:05.121Z,7.56
2019-04-03T02:55:39.315Z,7.55
2019-04-03T02:58:10.713Z,7.62
2019-04-03T03:00:42.576Z,7.79
2019-04-03T03:03:17.279Z,7.82
2019-04-03T03:05:48.016Z,7.83
2019-04-03T03:08:22.612Z,7.86
2019-04-03T03:10:53.937Z,7.87
2019-04-03T03:13:25.800Z,7.92
2019-04-03T03:15:58.012Z,7.92
2019-04-03T03:18:30.939Z,8.01
2019-04-03T03:21:05.443Z,8.10
2019-04-03T03:23:38.283Z,8.09
2019-04-03T03:26:10.879Z,8.10
2019-04-03T03:28:46.847Z,8.16
2019-04-03T03:31:19.378Z,8.17
2019-04-03T03:33:52.999Z,8.18
2019-04-03T03:36:27.460Z,8.21
2019-04-03T03:39:01.483Z,8.24
2019-04-03T03:41:35.682Z,8.32
2019-04-03T03:44:10.526Z,8.33
2019-04-03T03:46:41.650Z,8.28
2019-04-03T03:49:16.388Z,8.27
2019-04-03T03:51:49.188Z,8.24
2019-04-03T03:54:21.637Z,8.24
2019-04-03T03:56:53.806Z,8.19
2019-04-03T03:59:27.679Z,8.14
2019-04-03T04:02:03.193Z,8.16
2019-04-03T04:04:33.765Z,8.05
2019-04-03T04:07:05.906Z,7.96
2019-04-03T04:09:38.159Z,8.03
2019-04-03T04:12:10.709Z,8.09
2019-04-03T04:14:43.013Z,8.18
2019-04-03T04:17:18.042Z,8.16
2019-04-03T04:19:49.533Z,8.12
2019-04-03T04:22:21.396Z,8.03
2019-04-03T04:24:53.291Z,7.99
2019-04-03T04:27:25.430Z,7.96
2019-04-03T04:29:58.238Z,7.91
2019-04-03T04:32:30.274Z,7.87
2019-04-03T04:35:02.362Z,7.87
2019-04-03T04:37:34.390Z,7.94
2019-04-03T04:40:07.425Z,7.92
2019-04-03T04:42:39.312Z,7.95
2019-04-03T04:45:12.485Z,7.99
2019-04-03T04:47:46.398Z,7.93
2019-04-03T04:50:25.384Z,7.91
2019-04-03T04:52:58.721Z,7.91
2019-04-03T04:55:34.503Z,7.95
2019-04-03T04:58:05.392Z,7.98
2019-04-03T05:00:36.674Z,7.99
2019-04-03T05:03:08.773Z,8.00
2019-04-03T05:05:40.679Z,8.03
2019-04-03T05:08:12.540Z,8.10
2019-04-03T05:10:44.428Z,8.18
2019-04-03T05:13:16.706Z,8.21
2019-04-03T05:15:48.443Z,8.22
2019-04-03T05:18:20.442Z,8.26
2019-04-03T05:20:52.252Z,8.25
2019-04-03T05:23:25.599Z,8.28
2019-04-03T05:26:00.854Z,8.31
2019-04-03T05:28:34.225Z,8.37
2019-04-03T05:31:07.935Z,8.42
2019-04-03T05:33:41.230Z,8.46
2019-04-03T05:36:13.084Z,8.58
2019-04-03T05:38:45.130Z,8.65
2019-04-03T05:41:17.275Z,8.70
2019-04-03T05:43:49.199Z,8.73
2019-04-03T05:46:21.186Z,8.82
2019-04-03T05:48:52.391Z,8.92
2019-04-03T05:51:24.171Z,9.03
2019-04-03T05:53:56.303Z,9.17
2019-04-03T05:56:28.301Z,9.21
2019-04-03T05:59:02.255Z,9.24
2019-04-03T06:01:33.938Z,9.33
2019-04-03T06:04:05.792Z,9.29
2019-04-03T06:06:37.735Z,9.33
2019-04-03T06:09:09.795Z,9.45
2019-04-03T06:11:41.221Z,9.50
2019-04-03T06:14:14.215Z,9.51
2019-04-03T06:16:46.423Z,9.80
2019-04-03T06:19:18.222Z,10.07
2019-04-03T06:21:50.257Z,10.23
2019-04-03T06:24:22.301Z,10.25
2019-04-03T06:26:55.903Z,10.40
2019-04-03T06:29:27.760Z,10.47
2019-04-03T06:31:59.667Z,10.57
2019-04-03T06:34:31.596Z,10.58
2019-04-03T06:37:02.899Z,10.58
2019-04-03T06:39:34.049Z,10.45
2019-04-03T06:42:06.060Z,10.61
2019-04-03T06:44:37.964Z,10.79
2019-04-03T06:47:09.908Z,10.83
2019-04-03T06:49:42.051Z,10.88
2019-04-03T06:52:13.505Z,10.91
2019-04-03T06:54:46.300Z,10.87
2019-04-03T06:57:18.238Z,11.27
2019-04-03T06:59:50.196Z,11.62
2019-04-03T07:02:21.560Z,11.87
2019-04-03T07:04:52.740Z,12.14
2019-04-03T07:07:32.939Z,11.98
2019-04-03T07:09:58.026Z,12.15
2019-04-03T07:12:29.920Z,12.08
2019-04-03T07:15:01.316Z,11.84
2019-04-03T07:17:33.522Z,11.91
2019-04-03T07:20:13.506Z,12.27
2019-04-03T07:22:40.028Z,12.55
2019-04-03T07:25:12.090Z,12.40
2019-04-03T07:27:43.348Z,12.56
2019-04-03T07:30:17.681Z,12.61
2019-04-03T07:32:49.263Z,12.91
2019-04-03T07:35:21.071Z,12.95
2019-04-03T07:37:54.701Z,13.35
2019-04-03T07:40:26.619Z,13.38
2019-04-03T07:42:58.745Z,14.01
2019-04-03T07:45:33.038Z,14.24
2019-04-03T07:48:06.609Z,14.64
2019-04-03T07:50:39.757Z,14.41
2019-04-03T07:53:12.793Z,14.23
2019-04-03T07:55:46.072Z,14.29
2019-04-03T07:58:17.984Z,14.57
2019-04-03T08:00:49.317Z,14.56
2019-04-03T08:03:21.630Z,14.60
2019-04-03T08:05:55.871Z,14.87
2019-04-03T08:08:26.425Z,15.18
2019-04-03T08:11:01.466Z,15.18
2019-04-03T08:13:31.538Z,15.05
2019-04-03T08:16:03.367Z,14.83
2019-04-03T08:18:35.224Z,14.65
2019-04-03T08:21:08.251Z,14.57
2019-04-03T08:23:40.170Z,14.52
2019-04-03T08:26:12.294Z,14.85
2019-04-03T08:28:44.594Z,14.80
2019-04-03T08:31:16.737Z,15.10
2019-04-03T08:33:48.667Z,15.22
2019-04-03T08:36:25.397Z,14.93
2019-04-03T08:38:54.283Z,15.25
2019-04-03T08:41:26.091Z,15.44
2019-04-03T08:43:57.534Z,15.45
2019-04-03T08:46:29.448Z,15.31
2019-04-03T08:49:01.591Z,15.53
2019-04-03T08:51:33.864Z,15.29
2019-04-03T08:54:09.496Z,15.63
2019-04-03T08:56:39.886Z,15.82
2019-04-03T08:59:12.871Z,15.88
2019-04-03T09:01:44.766Z,15.80
2019-04-03T09:04:16.755Z,16.17
2019-04-03T09:06:49.913Z,16.39
2019-04-03T09:09:21.838Z,16.44
2019-04-03T09:11:53.457Z,16.52
2019-04-03T09:14:26.124Z,16.49
2019-04-03T09:16:57.491Z,16.23
2019-04-03T09:19:29.287Z,16.32
2019-04-03T09:22:01.267Z,16.49
2019-04-03T09:24:33.264Z,16.66
2019-04-03T09:27:08.574Z,16.77
2019-04-03T09:29:38.859Z,16.85
2019-04-03T09:32:14.325Z,16.97
2019-04-03T09:34:46.181Z,17.13
2019-04-03T09:37:18.437Z,17.26
2019-04-03T09:39:50.754Z,17.39
2019-04-03T09:42:22.657Z,17.54
2019-04-03T09:44:56.196Z,17.61
2019-04-03T09:47:27.525Z,17.61
2019-04-03T09:49:59.665Z,17.62
2019-04-03T09:52:39.462Z,17.57
2019-04-03T09:55:06.442Z,17.59
2019-04-03T09:57:39.687Z,17.72
2019-04-03T10:00:14.051Z,17.83
2019-04-03T10:02:46.067Z,17.88
2019-04-03T10:05:17.544Z,17.96
2019-04-03T10:07:49.606Z,17.86
2019-04-03T10:10:25.163Z,17.94
2019-04-03T10:12:55.906Z,18.03
2019-04-03T10:15:29.055Z,18.06
2019-04-03T10:18:01.562Z,17.49
2019-04-03T10:20:33.586Z,17.30
2019-04-03T10:23:06.680Z,17.40
2019-04-03T10:25:38.340Z,17.53
2019-04-03T10:28:13.788Z,17.62
2019-04-03T10:30:44.311Z,17.38
2019-04-03T10:33:16.486Z,17.41
2019-04-03T10:35:48.374Z,17.52
2019-04-03T10:38:19.538Z,17.73
2019-04-03T10:40:51.418Z,17.80
2019-04-03T10:43:23.273Z,17.85
2019-04-03T10:45:55.155Z,18.00
2019-04-03T10:48:27.889Z,18.12
2019-04-03T10:51:00.739Z,18.12
2019-04-03T10:53:33.046Z,17.96
2019-04-03T10:56:05.425Z,17.85
2019-04-03T10:58:38.417Z,17.81
2019-04-03T11:01:10.422Z,17.71
2019-04-03T11:03:42.338Z,17.74
2019-04-03T11:06:14.526Z,17.91
2019-04-03T11:08:47.760Z,18.13
2019-04-03T11:11:19.215Z,18.24
2019-04-03T11:13:51.189Z,18.27
2019-04-03T11:16:25.345Z,18.40
2019-04-03T11:19:00.972Z,18.52
2019-04-03T11:21:32.220Z,18.50
2019-04-03T11:24:04.384Z,18.58
2019-04-03T11:26:37.227Z,18.69
2019-04-03T11:29:10.411Z,18.78
2019-04-03T11:31:45.526Z,18.78
2019-04-03T11:34:18.529Z,18.69
2019-04-03T11:36:50.426Z,18.59
2019-04-03T11:39:22.032Z,18.58
2019-04-03T11:41:55.556Z,18.66
2019-04-03T11:44:27.527Z,18.72
2019-04-03T11:46:59.521Z,18.68
2019-04-03T11:49:31.417Z,18.66
2019-04-03T11:52:02.908Z,18.71
2019-04-03T11:54:35.027Z,18.72
2019-04-03T11:57:06.539Z,18.75
2019-04-03T11:59:38.069Z,18.88
2019-04-03T12:02:10.681Z,18.90
2019-04-03T12:04:44.211Z,18.90
2019-04-03T12:07:16.303Z,18.84
2019-04-03T12:09:48.232Z,18.97
2019-04-03T12:12:20.124Z,19.07
2019-04-03T12:14:52.210Z,19.10
2019-04-03T12:17:24.158Z,19.20
2019-04-03T12:19:55.536Z,19.29
2019-04-03T12:22:27.352Z,19.38
2019-04-03T12:24:59.174Z,19.34
2019-04-03T12:27:31.587Z,19.38
2019-04-03T12:30:03.526Z,19.37
2019-04-03T12:32:39.275Z,19.35
2019-04-03T12:35:11.315Z,19.36
2019-04-03T12:37:43.797Z,19.34
2019-04-03T12:40:16.205Z,19.35
2019-04-03T12:42:47.817Z,19.43
2019-04-03T12:45:19.950Z,19.62
2019-04-03T12:47:51.916Z,19.91
2019-04-03T12:50:26.896Z,20.05
2019-04-03T12:52:57.570Z,20.05
2019-04-03T12:55:29.436Z,20.22
2019-04-03T12:58:02.323Z,20.50
2019-04-03T13:00:34.952Z,20.87
2019-04-03T13:03:07.053Z,21.09
2019-04-03T13:05:38.695Z,21.36
2019-04-03T13:08:10.976Z,21.48
2019-04-03T13:10:47.122Z,21.72
2019-04-03T13:13:17.057Z,21.89
2019-04-03T13:15:49.372Z,22.12
2019-04-03T13:18:21.489Z,22.39
2019-04-03T13:20:54.209Z,22.83
2019-04-03T13:23:25.558Z,23.07
2019-04-03T13:25:59.872Z,23.35
2019-04-03T13:28:34.862Z,23.39
2019-04-03T13:31:06.687Z,23.32
2019-04-03T13:33:39.289Z,23.66
2019-04-03T13:36:11.331Z,23.70
2019-04-03T13:38:43.491Z,23.45
2019-04-03T13:41:15.807Z,23.37
2019-04-03T13:43:48.052Z,23.27
2019-04-03T13:46:20.137Z,22.87
2019-04-03T13:48:51.401Z,23.08
2019-04-03T13:51:25.366Z,23.34
2019-04-03T13:53:57.297Z,23.13
2019-04-03T13:56:30.501Z,22.88
2019-04-03T13:59:02.310Z,22.72
2019-04-03T14:01:33.785Z,22.44
2019-04-03T14:04:05.805Z,22.59
2019-04-03T14:06:37.758Z,22.55
2019-04-03T14:09:09.809Z,22.05
2019-04-03T14:11:44.471Z,22.23
2019-04-03T14:14:16.718Z,22.26
2019-04-03T14:16:48.883Z,22.38
2019-04-03T14:19:20.210Z,22.51
2019-04-03T14:21:51.951Z,22.67
2019-04-03T14:24:35.922Z,22.88
2019-04-03T14:26:56.907Z,22.93
2019-04-03T14:29:29.627Z,23.29
2019-04-03T14:32:02.184Z,23.34
2019-04-03T14:34:35.544Z,23.31
2019-04-03T14:37:06.928Z,23.35
2019-04-03T14:39:40.152Z,23.38
2019-04-03T14:42:11.603Z,23.09
2019-04-03T14:44:45.669Z,22.81
2019-04-03T14:47:16.915Z,22.88
2019-04-03T14:49:48.805Z,22.69
2019-04-03T14:52:21.250Z,22.33
2019-04-03T14:54:55.067Z,22.16
2019-04-03T14:57:26.128Z,21.80
2019-04-03T14:59:57.931Z,21.68
2019-04-03T15:02:30.054Z,21.77
2019-04-03T15:05:02.287Z,21.90
2019-04-03T15:07:36.415Z,21.98
2019-04-03T15:10:09.032Z,22.08
2019-04-03T15:12:41.087Z,22.06
2019-04-03T15:15:14.135Z,22.14
2019-04-03T15:17:45.641Z,22.16
2019-04-03T15:20:18.899Z,22.23
2019-04-03T15:22:51.664Z,22.36
2019-04-03T15:25:23.878Z,22.36
2019-04-03T15:27:55.438Z,22.31
2019-04-03T15:30:27.530Z,22.34
2019-04-03T15:32:59.464Z,22.31
2019-04-03T15:35:33.015Z,22.30
2019-04-03T15:38:05.209Z,22.22
2019-04-03T15:40:37.524Z,22.14
2019-04-03T15:43:11.634Z,22.03
2019-04-03T15:45:43.698Z,21.95
2019-04-03T15:48:15.973Z,21.81
2019-04-03T15:50:47.633Z,21.80
2019-04-03T15:53:19.517Z,21.75
2019-04-03T15:55:51.241Z,21.55
2019-04-03T15:58:22.796Z,21.67
2019-04-03T16:00:56.292Z,21.70
2019-04-03T16:03:28.440Z,21.70
2019-04-03T16:06:03.501Z,21.73
2019-04-03T16:08:36.782Z,21.58
2019-04-03T16:11:10.847Z,21.33
2019-04-03T16:13:47.133Z,21.02
2019-04-03T16:16:19.455Z,20.93
2019-04-03T16:18:51.469Z,20.70
2019-04-03T16:21:48.428Z,20.73
2019-04-03T16:24:28.536Z,20.67
2019-04-03T16:27:07.269Z,20.45
2019-04-03T16:29:39.872Z,20.29
2019-04-03T16:32:11.612Z,20.12
2019-04-03T16:34:42.884Z,19.95
2019-04-03T16:37:14.078Z,19.83
2019-04-03T16:39:49.169Z,19.70
2019-04-03T16:42:20.613Z,19.57
2019-04-03T16:44:53.222Z,19.40
2019-04-03T16:47:27.530Z,19.22
2019-04-03T16:50:00.965Z,19.02
2019-04-03T16:52:36.228Z,18.79
2019-04-03T16:55:06.750Z,18.61
2019-04-03T16:57:38.531Z,18.42
2019-04-03T17:00:12.277Z,18.25
2019-04-03T17:02:44.831Z,18.03
2019-04-03T17:05:17.336Z,17.80
2019-04-03T17:07:51.186Z,17.63
2019-04-03T17:10:23.304Z,17.44
2019-04-03T17:12:55.269Z,17.33
2019-04-03T17:15:27.121Z,17.23
2019-04-03T17:17:59.108Z,17.12
2019-04-03T17:20:31.181Z,16.98
2019-04-03T17:23:02.467Z,16.92
2019-04-03T17:25:46.293Z,16.80
2019-04-03T17:28:09.385Z,16.58
2019-04-03T17:30:40.327Z,16.37
2019-04-03T17:33:11.871Z,16.22
2019-04-03T17:35:46.177Z,16.20
2019-04-03T17:38:16.675Z,16.30
2019-04-03T17:40:47.828Z,16.10
2019-04-03T17:43:19.677Z,15.89
2019-04-03T17:45:51.518Z,15.68
2019-04-03T17:48:24.868Z,15.61
2019-04-03T17:50:56.664Z,15.56
2019-04-03T17:53:37.205Z,15.48
2019-04-03T17:56:12.278Z,15.43
2019-04-03T17:58:42.235Z,15.57
2019-04-03T18:01:14.113Z,15.55
2019-04-03T18:03:46.035Z,15.40
2019-04-03T18:06:18.622Z,15.19
2019-04-03T18:08:52.830Z,15.05
2019-04-03T18:11:24.612Z,15.01
2019-04-03T18:13:56.505Z,15.00
2019-04-03T18:16:29.512Z,15.11
2019-04-03T18:19:04.500Z,15.22
2019-04-03T18:21:34.153Z,15.23
2019-04-03T18:24:05.968Z,15.09
2019-04-03T18:26:37.177Z,14.95
2019-04-03T18:29:08.335Z,14.79
2019-04-03T18:31:39.506Z,14.83
2019-04-03T18:34:11.305Z,14.81
2019-04-03T18:36:43.210Z,15.11
2019-04-03T18:39:15.417Z,15.15
2019-04-03T18:41:47.731Z,15.07
2019-04-03T18:44:22.471Z,14.84
2019-04-03T18:46:56.867Z,14.78
2019-04-03T18:49:32.243Z,14.68
2019-04-03T18:52:07.708Z,14.65
2019-04-03T18:54:37.758Z,14.63
2019-04-03T18:57:09.724Z,14.53
2019-04-03T18:59:41.706Z,14.42
2019-04-03T19:02:25.133Z,14.34
2019-04-03T19:05:02.086Z,14.25
2019-04-03T19:07:29.950Z,14.21
2019-04-03T19:10:07.303Z,14.31
2019-04-03T19:12:35.782Z,14.28
2019-04-03T19:15:10.538Z,13.56
2019-04-03T19:17:43.459Z,14.01
2019-04-03T19:20:15.639Z,14.02
2019-04-03T19:22:47.015Z,13.96
2019-04-03T19:25:18.312Z,13.91
2019-04-03T19:27:49.949Z,13.88
2019-04-03T19:30:22.134Z,13.86
2019-04-03T19:32:54.652Z,13.88
2019-04-03T19:35:28.387Z,13.68
2019-04-03T19:37:59.544Z,13.49
2019-04-03T19:40:30.680Z,13.56
2019-04-03T19:43:02.071Z,13.43
2019-04-03T19:45:33.390Z,13.31
2019-04-03T19:48:04.782Z,13.18
2019-04-03T19:50:36.731Z,13.04
2019-04-03T19:53:08.657Z,13.11
2019-04-03T19:55:40.160Z,13.17
2019-04-03T19:58:13.545Z,13.20
2019-04-03T20:00:45.740Z,13.18
2019-04-03T20:03:17.919Z,13.14
2019-04-03T20:05:50.812Z,12.96
2019-04-03T20:08:23.858Z,12.87
2019-04-03T20:10:55.166Z,12.68
2019-04-03T20:13:28.078Z,12.81
2019-04-03T20:15:59.378Z,12.83
2019-04-03T20:18:31.231Z,12.88
2019-04-03T20:21:03.840Z,12.78
2019-04-03T20:23:35.482Z,12.73
2019-04-03T20:26:06.604Z,12.84
2019-04-03T20:28:37.899Z,12.85
2019-04-03T20:31:09.206Z,13.07
2019-04-03T20:33:42.337Z,13.14
2019-04-03T20:36:16.637Z,13.14
2019-04-03T20:38:48.580Z,13.03
2019-04-03T20:41:20.533Z,12.89
2019-04-03T20:43:52.626Z,12.98
2019-04-03T20:46:24.549Z,13.03
2019-04-03T20:48:58.465Z,12.93
2019-04-03T20:51:29.454Z,12.93
2019-04-03T20:54:00.667Z,12.87
2019-04-03T20:56:34.134Z,12.92
2019-04-03T20:59:05.700Z,13.14
2019-04-03T21:01:37.529Z,13.18
2019-04-03T21:04:09.474Z,13.25
2019-04-03T21:06:41.357Z,13.14
2019-04-03T21:09:13.262Z,13.22
2019-04-03T21:11:45.157Z,13.08
2019-04-03T21:14:17.147Z,13.03
2019-04-03T21:16:49.019Z,13.00
2019-04-03T21:19:21.432Z,13.08
2019-04-03T21:21:53.362Z,13.11
2019-04-03T21:24:25.210Z,13.00
2019-04-03T21:26:57.213Z,13.00
2019-04-03T21:29:28.447Z,12.93
2019-04-03T21:32:00.427Z,12.82
2019-04-03T21:34:32.821Z,12.87
2019-04-03T21:37:04.419Z,12.82
2019-04-03T21:39:36.209Z,12.84
2019-04-03T21:42:08.061Z,12.73
2019-04-03T21:44:40.120Z,12.70
2019-04-03T21:47:12.247Z,12.57
2019-04-03T21:49:47.278Z,12.43
2019-04-03T21:52:17.069Z,12.46
2019-04-03T21:54:49.069Z,12.37
2019-04-03T21:57:21.745Z,12.34
2019-04-03T21:59:53.598Z,12.19
2019-04-03T22:02:26.541Z,12.18
2019-04-03T22:04:58.344Z,12.11
2019-04-03T22:07:30.387Z,12.23
2019-04-03T22:10:02.679Z,12.30
2019-04-03T22:12:36.784Z,12.27
2019-04-03T22:15:13.550Z,12.16
2019-04-03T22:17:43.790Z,12.38
2019-04-03T22:20:15.998Z,12.24
2019-04-03T22:22:47.950Z,12.20
2019-04-03T22:25:19.973Z,12.19
2019-04-03T22:27:51.173Z,12.08
2019-04-03T22:30:24.497Z,12.01
2019-04-03T22:32:56.440Z,11.95
2019-04-03T22:35:30.160Z,11.82
2019-04-03T22:38:01.317Z,11.70
2019-04-03T22:40:33.120Z,11.72
2019-04-03T22:43:04.948Z,11.81
2019-04-03T22:45:36.788Z,11.80
2019-04-03T22:48:08.667Z,11.90
2019-04-03T22:50:40.548Z,11.78
2019-04-03T22:53:12.591Z,11.65
2019-04-03T22:55:46.289Z,11.58
2019-04-03T22:58:18.999Z,11.43
2019-04-03T23:00:51.872Z,11.37
2019-04-03T23:03:23.891Z,11.26
2019-04-03T23:05:55.709Z,11.15
2019-04-03T23:08:27.584Z,11.12
2019-04-03T23:11:01.385Z,11.17
2019-04-03T23:13:33.834Z,11.08
2019-04-03T23:16:06.167Z,10.99
2019-04-03T23:18:38.137Z,10.91
2019-04-03T23:21:10.018Z,10.86
2019-04-03T23:23:42.078Z,10.74
2019-04-03T23:26:13.392Z,10.80
2019-04-03T23:28:45.294Z,10.70
2019-04-03T23:31:17.192Z,10.72
2019-04-03T23:33:49.100Z,10.62
2019-04-03T23:36:22.842Z,10.50
2019-04-03T23:38:56.404Z,10.63
2019-04-03T23:41:28.306Z,10.52
2019-04-03T23:44:00.247Z,10.43
2019-04-03T23:46:32.152Z,10.29
2019-04-03T23:49:04.119Z,10.24
2019-04-03T23:51:35.335Z,10.13
2019-04-03T23:54:08.222Z,10.13
2019-04-03T23:56:40.086Z,10.18
2019-04-03T23:59:12.991Z,10.17
